createdAt,value
2018-02-24T00:02:20.302Z,49.77
2018-02-24T00:04:47.935Z,50.30
2018-02-24T00:07:15.691Z,52.57
2018-02-24T00:09:43.387Z,49.60
2018-02-24T00:12:11.049Z,47.33
2018-02-24T00:14:38.829Z,52.57
2018-02-24T00:17:06.469Z,55.50
2018-02-24T00:19:34.105Z,51.43
2018-02-24T00:22:01.714Z,54.80
2018-02-24T00:24:29.488Z,54.63
2018-02-24T00:26:57.899Z,52.20
2018-02-24T00:29:25.566Z,52.67
2018-02-24T00:31:53.297Z,49.67
2018-02-24T00:34:21.756Z,47.63
2018-02-24T00:36:49.477Z,54.73
2018-02-24T00:39:17.540Z,53.47
2018-02-24T00:41:45.208Z,56.77
2018-02-24T00:44:12.833Z,59.23
2018-02-24T00:46:41.620Z,52.77
2018-02-24T00:49:09.985Z,54.13
2018-02-24T00:51:37.591Z,53.37
2018-02-24T00:54:05.257Z,48.30
2018-02-24T00:56:32.893Z,51.50
2018-02-24T00:59:00.572Z,49.53
2018-02-24T01:01:28.185Z,54.73
2018-02-24T01:03:55.858Z,51.50
2018-02-24T01:06:23.463Z,49.97
2018-02-24T01:08:51.213Z,45.57
2018-02-24T01:11:18.880Z,48.30
2018-02-24T01:13:46.512Z,53.47
2018-02-24T01:16:14.980Z,56.33
2018-02-24T01:18:42.624Z,58.40
2018-02-24T01:21:10.353Z,52.90
2018-02-24T01:23:37.969Z,53.80
2018-02-24T01:26:06.359Z,51.03
2018-02-24T01:28:34.792Z,52.27
2018-02-24T01:31:02.399Z,57.93
2018-02-24T01:33:30.423Z,52.87
2018-02-24T01:35:58.041Z,51.53
2018-02-24T01:38:25.788Z,55.67
2018-02-24T01:40:54.166Z,49.60
2018-02-24T01:43:22.686Z,52.80
2018-02-24T01:45:51.608Z,51.60
2018-02-24T01:48:19.225Z,50.23
2018-02-24T01:50:46.895Z,54.23
2018-02-24T01:53:14.535Z,51.90
2018-02-24T01:55:42.192Z,52.83
2018-02-24T01:58:10.585Z,49.97
2018-02-24T02:00:38.245Z,52.10
2018-02-24T02:03:05.836Z,51.33
2018-02-24T02:05:33.477Z,53.13
2018-02-24T02:08:01.873Z,53.37
2018-02-24T02:10:29.556Z,47.80
2018-02-24T02:12:57.188Z,53.17
2018-02-24T02:15:24.818Z,55.07
2018-02-24T02:17:53.260Z,55.03
2018-02-24T02:20:20.890Z,53.10
2018-02-24T02:22:48.533Z,51.60
2018-02-24T02:25:16.171Z,53.97
2018-02-24T02:27:44.529Z,57.37
2018-02-24T02:30:12.162Z,54.43
2018-02-24T02:32:39.786Z,58.17
2018-02-24T02:35:07.459Z,59.63
2018-02-24T02:37:35.157Z,59.20
2018-02-24T02:40:02.828Z,58.60
2018-02-24T02:42:30.469Z,58.57
2018-02-24T02:44:58.087Z,57.13
2018-02-24T02:47:25.716Z,52.80
2018-02-24T02:49:53.332Z,48.73
2018-02-24T02:52:20.950Z,50.33
2018-02-24T02:54:49.355Z,49.37
2018-02-24T02:57:17.031Z,52.73
2018-02-24T02:59:44.665Z,50.93
2018-02-24T03:02:13.030Z,52.43
2018-02-24T03:04:41.392Z,51.43
2018-02-24T03:07:08.986Z,53.03
2018-02-24T03:09:36.615Z,46.57
2018-02-24T03:12:04.274Z,55.53
2018-02-24T03:14:31.895Z,56.70
2018-02-24T03:16:59.565Z,54.70
2018-02-24T03:19:27.977Z,54.80
2018-02-24T03:21:55.589Z,53.67
2018-02-24T03:24:23.199Z,52.83
2018-02-24T03:26:50.807Z,47.87
2018-02-24T03:29:19.806Z,50.97
2018-02-24T03:31:48.280Z,54.67
2018-02-24T03:34:15.893Z,48.47
2018-02-24T03:36:43.539Z,51.63
2018-02-24T03:39:11.165Z,53.50
2018-02-24T03:41:38.889Z,55.50
2018-02-24T03:44:07.284Z,59.77
2018-02-24T03:46:35.655Z,54.77
2018-02-24T03:49:04.153Z,51.17
2018-02-24T03:51:31.776Z,53.90
2018-02-24T03:53:59.820Z,54.30
2018-02-24T03:56:28.190Z,52.57
2018-02-24T03:58:55.798Z,51.10
2018-02-24T04:01:24.679Z,57.47
2018-02-24T04:03:52.288Z,51.03
2018-02-24T04:06:19.950Z,54.83
2018-02-24T04:08:47.607Z,48.53
2018-02-24T04:11:15.405Z,50.83
2018-02-24T04:13:43.102Z,56.57
2018-02-24T04:16:11.579Z,52.07
2018-02-24T04:18:39.991Z,53.37
2018-02-24T04:21:07.615Z,55.60
2018-02-24T04:23:36.091Z,50.13
2018-02-24T04:26:03.710Z,54.20
2018-02-24T04:28:31.410Z,52.73
2018-02-24T04:30:59.026Z,49.43
2018-02-24T04:33:26.692Z,51.07
2018-02-24T04:35:54.296Z,50.30
2018-02-24T04:38:21.930Z,56.20
2018-02-24T04:40:49.557Z,52.47
2018-02-24T04:43:17.526Z,51.43
2018-02-24T04:45:45.151Z,50.90
2018-02-24T04:48:13.537Z,53.03
2018-02-24T04:50:41.955Z,52.00
2018-02-24T04:53:09.650Z,49.07
2018-02-24T04:55:37.270Z,53.37
2018-02-24T04:58:04.899Z,48.40
2018-02-24T05:00:33.286Z,49.43
2018-02-24T05:03:01.704Z,54.87
2018-02-24T05:05:29.300Z,49.60
2018-02-24T05:07:56.926Z,45.83
2018-02-24T05:10:24.562Z,54.33
2018-02-24T05:12:52.205Z,47.00
2018-02-24T05:15:20.592Z,43.93
2018-02-24T05:17:48.246Z,43.73
2018-02-24T05:20:16.623Z,48.43
2018-02-24T05:22:45.229Z,45.53
2018-02-24T05:25:12.856Z,48.30
2018-02-24T05:27:41.232Z,44.03
2018-02-24T05:30:09.637Z,38.67
2018-02-24T05:32:38.331Z,45.73
2018-02-24T05:35:06.006Z,44.13
2018-02-24T05:37:33.601Z,42.57
2018-02-24T05:40:01.223Z,48.57
2018-02-24T05:42:28.847Z,45.97
2018-02-24T05:44:57.592Z,45.23
2018-02-24T05:47:25.192Z,41.60
2018-02-24T05:49:53.571Z,45.00
2018-02-24T05:52:21.953Z,51.40
2018-02-24T05:54:49.588Z,43.30
2018-02-24T05:57:17.272Z,42.63
2018-02-24T05:59:45.670Z,45.07
2018-02-24T06:02:13.402Z,46.07
2018-02-24T06:04:41.044Z,45.20
2018-02-24T06:07:08.674Z,46.97
2018-02-24T06:09:36.444Z,39.70
2018-02-24T06:12:04.066Z,39.23
2018-02-24T06:14:31.712Z,42.30
2018-02-24T06:17:01.678Z,45.33
2018-02-24T06:19:29.268Z,42.80
2018-02-24T06:21:56.988Z,41.07
2018-02-24T06:24:24.601Z,44.13
2018-02-24T06:26:52.229Z,38.13
2018-02-24T06:29:19.875Z,42.13
2018-02-24T06:31:47.536Z,39.57
2018-02-24T06:34:15.300Z,38.93
2018-02-24T06:36:42.904Z,36.73
2018-02-24T06:39:10.574Z,38.83
2018-02-24T06:41:39.027Z,38.97
2018-02-24T06:44:06.777Z,38.37
2018-02-24T06:46:35.698Z,39.23
2018-02-24T06:49:03.368Z,35.23
2018-02-24T06:51:31.046Z,35.53
2018-02-24T06:53:58.685Z,31.93
2018-02-24T06:56:27.899Z,40.43
2018-02-24T06:58:56.287Z,40.10
2018-02-24T07:01:24.697Z,34.43
2018-02-24T07:03:52.404Z,35.10
2018-02-24T07:06:21.334Z,38.30
2018-02-24T07:08:48.949Z,37.90
2018-02-24T07:11:16.602Z,37.83
2018-02-24T07:13:44.258Z,42.83
2018-02-24T07:16:11.887Z,36.63
2018-02-24T07:18:40.342Z,40.77
2018-02-24T07:21:07.984Z,39.47
2018-02-24T07:23:35.588Z,35.53
2018-02-24T07:26:03.259Z,36.50
2018-02-24T07:28:30.884Z,34.13
2018-02-24T07:30:59.453Z,33.77
2018-02-24T07:33:27.838Z,38.77
2018-02-24T07:35:56.229Z,31.97
2018-02-24T07:38:23.893Z,33.60
2018-02-24T07:40:51.577Z,35.33
2018-02-24T07:43:19.223Z,36.73
2018-02-24T07:45:46.949Z,39.47
2018-02-24T07:48:14.589Z,44.40
2018-02-24T07:50:42.290Z,50.00
2018-02-24T07:53:10.700Z,40.83
2018-02-24T07:55:38.348Z,44.30
2018-02-24T07:58:06.034Z,34.83
2018-02-24T08:00:33.682Z,38.13
2018-02-24T08:03:01.326Z,34.90
2018-02-24T08:05:29.062Z,35.77
2018-02-24T08:07:56.718Z,35.97
2018-02-24T08:10:24.381Z,35.63
2018-02-24T08:12:52.027Z,36.40
2018-02-24T08:15:19.671Z,32.60
2018-02-24T08:17:47.273Z,31.13
2018-02-24T08:20:14.879Z,35.03
2018-02-24T08:22:42.505Z,32.80
2018-02-24T08:25:10.958Z,29.77
2018-02-24T08:27:38.603Z,34.57
2018-02-24T08:30:06.238Z,36.20
2018-02-24T08:32:33.998Z,32.13
2018-02-24T08:35:01.621Z,32.47
2018-02-24T08:37:30.238Z,34.80
2018-02-24T08:39:57.841Z,30.17
2018-02-24T08:42:25.494Z,33.00
2018-02-24T08:44:53.113Z,33.40
2018-02-24T08:47:20.721Z,35.10
2018-02-24T08:49:48.496Z,30.07
2018-02-24T08:52:16.903Z,35.53
2018-02-24T08:54:45.728Z,32.20
2018-02-24T08:57:13.358Z,33.73
2018-02-24T08:59:40.986Z,33.07
2018-02-24T09:02:08.697Z,33.30
2018-02-24T09:04:36.308Z,37.10
2018-02-24T09:07:03.991Z,36.93
2018-02-24T09:09:31.649Z,33.90
2018-02-24T09:11:59.321Z,37.03
2018-02-24T09:14:26.932Z,37.27
2018-02-24T09:16:54.859Z,35.47
2018-02-24T09:19:22.499Z,36.30
2018-02-24T09:21:50.119Z,34.70
2018-02-24T09:24:18.985Z,31.93
2018-02-24T09:26:46.610Z,37.13
2018-02-24T09:29:14.293Z,33.33
2018-02-24T09:31:41.930Z,32.73
2018-02-24T09:34:09.641Z,29.73
2018-02-24T09:36:38.047Z,32.87
2018-02-24T09:39:07.039Z,30.47
2018-02-24T09:41:35.471Z,27.63
2018-02-24T09:44:05.739Z,32.27
2018-02-24T09:46:33.395Z,31.47
2018-02-24T09:49:01.051Z,31.40
2018-02-24T09:51:28.744Z,31.53
2018-02-24T09:53:56.377Z,31.13
2018-02-24T09:56:24.045Z,30.27
2018-02-24T09:58:51.723Z,32.20
2018-02-24T10:01:19.377Z,31.50
2018-02-24T10:03:46.990Z,30.03
2018-02-24T10:06:14.716Z,28.00
2018-02-24T10:08:42.658Z,30.33
2018-02-24T10:11:11.032Z,27.17
2018-02-24T10:13:38.714Z,28.80
2018-02-24T10:16:06.309Z,27.33
2018-02-24T10:18:34.742Z,29.30
2018-02-24T10:21:02.460Z,25.70
2018-02-24T10:23:30.096Z,28.07
2018-02-24T10:25:57.784Z,27.43
2018-02-24T10:28:25.390Z,26.93
2018-02-24T10:30:53.056Z,26.90
2018-02-24T10:33:20.679Z,27.13
2018-02-24T10:35:49.067Z,26.07
2018-02-24T10:38:17.555Z,24.33
2018-02-24T10:40:45.155Z,27.93
2018-02-24T10:43:12.772Z,25.57
2018-02-24T10:45:40.463Z,25.17
2018-02-24T10:48:08.096Z,21.03
2018-02-24T10:50:36.510Z,25.63
2018-02-24T10:53:04.181Z,20.37
2018-02-24T10:55:31.810Z,23.37
2018-02-24T10:57:59.459Z,38.60
2018-02-24T11:00:27.123Z,25.80
2018-02-24T11:02:55.520Z,25.13
2018-02-24T11:05:23.782Z,20.93
2018-02-24T11:07:51.411Z,20.97
2018-02-24T11:10:19.079Z,23.83
2018-02-24T11:12:47.465Z,23.53
2018-02-24T11:15:15.886Z,22.03
2018-02-24T11:17:43.619Z,22.97
2018-02-24T11:20:11.305Z,26.63
2018-02-24T11:22:39.053Z,22.27
2018-02-24T11:25:06.696Z,25.77
2018-02-24T11:27:35.096Z,23.57
2018-02-24T11:30:02.805Z,23.77
2018-02-24T11:32:30.587Z,23.27
2018-02-24T11:34:58.360Z,34.37
2018-02-24T11:37:26.740Z,25.77
2018-02-24T11:39:54.410Z,25.03
2018-02-24T11:42:22.802Z,22.83
2018-02-24T11:44:50.893Z,20.30
2018-02-24T11:47:18.569Z,21.83
2018-02-24T11:49:46.188Z,23.67
2018-02-24T11:52:13.940Z,23.70
2018-02-24T11:54:42.354Z,17.67
2018-02-24T11:57:10.826Z,18.83
2018-02-24T11:59:38.463Z,17.83
2018-02-24T12:02:06.879Z,20.03
2018-02-24T12:04:34.499Z,20.80
2018-02-24T12:07:02.898Z,17.77
2018-02-24T12:09:30.516Z,18.17
2018-02-24T12:11:58.187Z,17.67
2018-02-24T12:14:26.666Z,18.90
2018-02-24T12:16:55.206Z,21.10
2018-02-24T12:19:22.938Z,20.63
2018-02-24T12:21:50.585Z,30.83
2018-02-24T12:24:18.976Z,17.47
2018-02-24T12:26:46.587Z,19.37
2018-02-24T12:29:14.337Z,15.57
2018-02-24T12:31:41.978Z,16.87
2018-02-24T12:34:09.642Z,15.77
2018-02-24T12:36:37.234Z,16.57
2018-02-24T12:39:04.881Z,16.90
2018-02-24T12:41:32.543Z,17.30
2018-02-24T12:44:00.936Z,17.67
2018-02-24T12:46:28.818Z,16.50
2018-02-24T12:48:56.497Z,16.83
2018-02-24T12:51:25.060Z,16.93
2018-02-24T12:53:52.928Z,13.23
2018-02-24T12:56:20.634Z,14.77
2018-02-24T12:58:48.259Z,14.93
2018-02-24T13:01:17.396Z,14.57
2018-02-24T13:03:45.060Z,15.43
2018-02-24T13:06:12.700Z,15.63
2018-02-24T13:08:41.711Z,14.93
2018-02-24T13:11:09.386Z,15.60
2018-02-24T13:13:37.094Z,15.93
2018-02-24T13:16:04.754Z,13.70
2018-02-24T13:18:32.386Z,13.30
2018-02-24T13:21:00.024Z,15.57
2018-02-24T13:23:27.672Z,13.93
2018-02-24T13:25:55.399Z,13.07
2018-02-24T13:28:23.102Z,15.90
2018-02-24T13:30:50.774Z,11.60
2018-02-24T13:33:18.413Z,17.50
2018-02-24T13:35:46.176Z,12.53
2018-02-24T13:38:13.784Z,13.90
2018-02-24T13:40:41.396Z,12.97
2018-02-24T13:43:09.814Z,14.37
2018-02-24T13:45:37.433Z,12.53
2018-02-24T13:48:05.961Z,15.63
2018-02-24T13:50:34.246Z,11.67
2018-02-24T13:53:01.901Z,12.27
2018-02-24T13:55:30.342Z,18.73
2018-02-24T13:57:58.008Z,13.40
2018-02-24T14:00:27.408Z,13.90
2018-02-24T14:02:55.145Z,16.03
2018-02-24T14:05:23.476Z,12.83
2018-02-24T14:07:51.188Z,12.17
2018-02-24T14:10:19.612Z,12.27
2018-02-24T14:12:48.038Z,11.87
2018-02-24T14:15:16.848Z,13.20
2018-02-24T14:17:44.458Z,11.57
2018-02-24T14:20:12.145Z,12.57
2018-02-24T14:22:39.899Z,17.13
2018-02-24T14:25:08.441Z,9.80
2018-02-24T14:27:36.141Z,12.17
2018-02-24T14:30:03.752Z,11.43
2018-02-24T14:32:31.616Z,8.87
2018-02-24T14:34:59.226Z,10.17
2018-02-24T14:37:26.910Z,12.80
2018-02-24T14:39:55.412Z,12.37
2018-02-24T14:42:23.208Z,12.17
2018-02-24T14:44:50.941Z,11.03
2018-02-24T14:47:19.130Z,12.17
2018-02-24T14:49:46.783Z,11.93
2018-02-24T14:52:14.400Z,10.37
2018-02-24T14:54:42.038Z,11.27
2018-02-24T14:57:09.660Z,9.77
2018-02-24T14:59:37.334Z,10.90
2018-02-24T15:02:04.940Z,10.67
2018-02-24T15:04:32.592Z,11.00
2018-02-24T15:07:00.246Z,11.60
2018-02-24T15:09:27.936Z,11.70
2018-02-24T15:11:55.639Z,11.70
2018-02-24T15:14:23.266Z,13.40
2018-02-24T15:16:51.785Z,16.23
2018-02-24T15:19:19.490Z,15.20
2018-02-24T15:21:47.106Z,14.87
2018-02-24T15:24:14.846Z,14.77
2018-02-24T15:26:43.262Z,15.20
2018-02-24T15:29:10.902Z,16.67
2018-02-24T15:31:38.618Z,21.37
2018-02-24T15:34:07.246Z,17.43
2018-02-24T15:36:34.873Z,20.23
2018-02-24T15:39:02.530Z,17.67
2018-02-24T15:41:30.238Z,18.10
2018-02-24T15:43:57.944Z,18.07
2018-02-24T15:46:25.578Z,18.83
2018-02-24T15:48:53.253Z,22.10
2018-02-24T15:51:21.688Z,21.20
2018-02-24T15:53:51.327Z,19.63
2018-02-24T15:56:19.104Z,22.43
2018-02-24T15:58:46.751Z,24.87
2018-02-24T16:01:14.411Z,25.50
2018-02-24T16:03:42.121Z,29.73
2018-02-24T16:06:10.518Z,25.07
2018-02-24T16:08:39.067Z,27.03
2018-02-24T16:11:06.735Z,25.03
2018-02-24T16:13:35.264Z,25.57
2018-02-24T16:16:02.943Z,28.70
2018-02-24T16:18:30.588Z,25.57
2018-02-24T16:20:58.256Z,24.63
2018-02-24T16:23:25.891Z,25.50
2018-02-24T16:25:53.562Z,26.57
2018-02-24T16:28:21.235Z,28.30
2018-02-24T16:30:48.894Z,27.27
2018-02-24T16:33:16.528Z,24.60
2018-02-24T16:35:44.913Z,28.17
2018-02-24T16:38:12.614Z,23.23
2018-02-24T16:40:40.290Z,22.70
2018-02-24T16:43:07.955Z,20.60
2018-02-24T16:45:38.396Z,18.67
2018-02-24T16:48:06.043Z,24.77
2018-02-24T16:50:33.715Z,19.37
2018-02-24T16:53:01.311Z,22.63
2018-02-24T16:55:29.029Z,22.87
2018-02-24T16:57:58.772Z,19.97
2018-02-24T17:00:27.490Z,20.90
2018-02-24T17:02:55.168Z,23.03
2018-02-24T17:05:23.226Z,22.70
2018-02-24T17:07:50.941Z,24.20
2018-02-24T17:10:18.674Z,25.20
2018-02-24T17:12:46.384Z,24.97
2018-02-24T17:15:14.740Z,31.43
2018-02-24T17:17:42.515Z,29.67
2018-02-24T17:20:10.959Z,20.53
2018-02-24T17:22:38.659Z,24.30
2018-02-24T17:25:07.100Z,25.87
2018-02-24T17:27:34.895Z,22.53
2018-02-24T17:30:03.477Z,20.53
2018-02-24T17:32:31.225Z,26.30
2018-02-24T17:34:58.869Z,21.73
2018-02-24T17:37:26.490Z,19.93
2018-02-24T17:39:54.164Z,20.30
2018-02-24T17:42:21.816Z,16.53
2018-02-24T17:44:49.496Z,19.07
2018-02-24T17:47:17.147Z,22.77
2018-02-24T17:49:44.800Z,18.13
2018-02-24T17:52:12.690Z,17.93
2018-02-24T17:54:40.867Z,19.37
2018-02-24T17:57:08.792Z,20.23
2018-02-24T17:59:37.626Z,17.97
2018-02-24T18:02:05.285Z,19.20
2018-02-24T18:04:33.832Z,19.85
2018-02-24T18:07:02.699Z,25.87
2018-02-24T18:09:30.592Z,18.90
2018-02-24T18:11:58.358Z,19.37
2018-02-24T18:14:25.992Z,21.27
2018-02-24T18:16:54.699Z,17.23
2018-02-24T18:19:22.581Z,20.47
2018-02-24T18:21:50.271Z,15.27
2018-02-24T18:24:17.927Z,18.27
2018-02-24T18:26:45.595Z,19.27
2018-02-24T18:29:13.246Z,19.27
2018-02-24T18:31:40.883Z,17.70
2018-02-24T18:34:08.682Z,18.80
2018-02-24T18:36:36.401Z,18.60
2018-02-24T18:39:04.120Z,16.30
2018-02-24T18:41:31.753Z,16.40
2018-02-24T18:43:59.432Z,17.43
2018-02-24T18:46:27.154Z,16.43
2018-02-24T18:48:54.904Z,13.40
2018-02-24T18:51:22.608Z,12.93
2018-02-24T18:53:50.313Z,11.13
2018-02-24T18:56:18.766Z,12.20
2018-02-24T18:58:47.215Z,10.63
2018-02-24T19:01:15.167Z,12.00
2018-02-24T19:03:42.805Z,11.93
2018-02-24T19:06:11.216Z,12.47
2018-02-24T19:08:38.908Z,15.33
2018-02-24T19:11:06.638Z,18.53
2018-02-24T19:13:34.374Z,13.27
2018-02-24T19:16:02.828Z,10.27
2018-02-24T19:18:30.475Z,10.97
2018-02-24T19:20:58.464Z,11.20
2018-02-24T19:23:26.125Z,12.30
2018-02-24T19:25:53.736Z,12.33
2018-02-24T19:28:21.390Z,10.13
2018-02-24T19:30:49.065Z,17.77
2018-02-24T19:33:16.738Z,10.87
2018-02-24T19:35:44.348Z,13.67
2018-02-24T19:38:12.079Z,16.23
2018-02-24T19:40:39.801Z,15.80
2018-02-24T19:43:07.483Z,13.97
2018-02-24T19:45:35.227Z,12.30
2018-02-24T19:48:03.055Z,13.87
2018-02-24T19:50:31.482Z,13.90
2018-02-24T19:52:59.346Z,18.40
2018-02-24T19:55:26.965Z,15.23
2018-02-24T19:57:55.479Z,15.00
2018-02-24T20:00:23.310Z,15.83
2018-02-24T20:02:51.808Z,16.03
2018-02-24T20:05:19.450Z,15.60
2018-02-24T20:07:47.085Z,15.23
2018-02-24T20:10:14.818Z,14.10
2018-02-24T20:12:42.424Z,10.67
2018-02-24T20:15:10.135Z,10.17
2018-02-24T20:17:38.001Z,13.73
2018-02-24T20:20:05.693Z,16.83
2018-02-24T20:22:33.331Z,10.70
2018-02-24T20:25:01.121Z,10.70
2018-02-24T20:27:29.015Z,13.00
2018-02-24T20:29:57.469Z,17.07
2018-02-24T20:32:25.221Z,14.80
2018-02-24T20:34:52.860Z,13.90
2018-02-24T20:37:20.587Z,12.90
2018-02-24T20:39:48.955Z,17.27
2018-02-24T20:42:16.594Z,14.37
2018-02-24T20:44:44.273Z,14.30
2018-02-24T20:47:11.991Z,13.77
2018-02-24T20:49:39.648Z,12.23
2018-02-24T20:52:07.277Z,11.93
2018-02-24T20:54:35.679Z,16.10
2018-02-24T20:57:03.375Z,15.77
2018-02-24T20:59:31.135Z,13.33
2018-02-24T21:01:58.798Z,16.23
2018-02-24T21:04:26.447Z,13.83
2018-02-24T21:06:54.197Z,13.37
2018-02-24T21:09:21.862Z,11.23
2018-02-24T21:11:49.501Z,11.73
2018-02-24T21:14:17.130Z,13.97
2018-02-24T21:16:44.765Z,9.23
2018-02-24T21:19:13.262Z,10.70
2018-02-24T21:21:40.878Z,12.30
2018-02-24T21:24:08.606Z,14.90
2018-02-24T21:26:37.134Z,10.87
2018-02-24T21:29:04.757Z,13.10
2018-02-24T21:31:33.164Z,13.90
2018-02-24T21:34:01.060Z,13.20
2018-02-24T21:36:29.439Z,11.63
2018-02-24T21:38:57.067Z,9.77
2018-02-24T21:41:24.753Z,11.80
2018-02-24T21:43:52.369Z,13.23
2018-02-24T21:46:20.126Z,10.57
2018-02-24T21:48:48.511Z,9.60
2018-02-24T21:51:16.942Z,8.47
2018-02-24T21:53:44.590Z,8.97
2018-02-24T21:56:12.338Z,11.87
2018-02-24T21:58:39.989Z,11.50
2018-02-24T22:01:07.716Z,9.27
2018-02-24T22:03:35.382Z,8.23
2018-02-24T22:06:03.056Z,15.33
2018-02-24T22:08:31.468Z,11.30
2018-02-24T22:10:59.141Z,12.57
2018-02-24T22:13:26.817Z,7.10
2018-02-24T22:15:54.516Z,12.90
2018-02-24T22:18:22.998Z,10.03
2018-02-24T22:20:50.830Z,10.63
2018-02-24T22:23:18.508Z,15.43
2018-02-24T22:25:46.126Z,11.87
2018-02-24T22:28:13.760Z,12.27
2018-02-24T22:30:42.261Z,11.70
2018-02-24T22:33:10.048Z,12.27
2018-02-24T22:35:37.694Z,10.60
2018-02-24T22:38:05.394Z,15.13
2018-02-24T22:40:33.072Z,15.17
2018-02-24T22:43:01.464Z,11.70
2018-02-24T22:45:29.873Z,11.77
2018-02-24T22:48:03.187Z,16.73
2018-02-24T22:50:31.612Z,15.53
2018-02-24T22:53:00.021Z,12.33
2018-02-24T22:55:27.706Z,13.60
2018-02-24T22:57:55.377Z,9.30
2018-02-24T23:00:29.875Z,11.40
2018-02-24T23:02:57.590Z,13.07
2018-02-24T23:05:25.966Z,14.27
2018-02-24T23:07:53.657Z,14.50
2018-02-24T23:10:21.281Z,15.97
2018-02-24T23:12:48.889Z,12.70
2018-02-24T23:15:16.530Z,17.83
2018-02-24T23:17:44.170Z,13.03
2018-02-24T23:20:11.832Z,16.83
2018-02-24T23:22:39.578Z,12.73
2018-02-24T23:25:07.211Z,14.43
2018-02-24T23:27:34.845Z,12.00
2018-02-24T23:30:02.846Z,12.97
2018-02-24T23:32:30.498Z,14.77
2018-02-24T23:34:58.148Z,14.03
2018-02-24T23:37:25.799Z,11.90
2018-02-24T23:39:53.443Z,14.10
2018-02-24T23:42:21.885Z,16.70
2018-02-24T23:44:49.540Z,14.50
2018-02-24T23:47:17.266Z,18.07
2018-02-24T23:49:44.906Z,20.40
2018-02-24T23:52:13.324Z,15.70
2018-02-24T23:54:40.952Z,14.80
2018-02-24T23:57:08.647Z,15.63
2018-02-24T23:59:36.250Z,16.13
